createdAt,value
2022-09-22T00:01:13.874Z,67.00
2022-09-22T00:02:16.113Z,66.81
2022-09-22T00:03:18.286Z,66.90
2022-09-22T00:04:20.454Z,66.92
2022-09-22T00:05:24.114Z,66.84
2022-09-22T00:06:39.065Z,66.95
2022-09-22T00:07:41.367Z,66.86
2022-09-22T00:08:47.165Z,67.07
2022-09-22T00:09:49.304Z,67.00
2022-09-22T00:11:13.980Z,66.98
2022-09-22T00:12:16.313Z,67.06
2022-09-22T00:13:18.486Z,66.75
2022-09-22T00:14:26.108Z,67.05
2022-09-22T00:15:28.339Z,66.99
2022-09-22T00:16:40.094Z,66.72
2022-09-22T00:17:42.792Z,66.74
2022-09-22T00:18:44.959Z,66.70
2022-09-22T00:19:47.132Z,66.69
2022-09-22T00:20:49.473Z,66.68
2022-09-22T00:21:51.753Z,66.82
2022-09-22T00:22:53.858Z,66.75
2022-09-22T00:23:56.017Z,66.61
2022-09-22T00:25:00.221Z,66.64
2022-09-22T00:26:09.463Z,66.72
2022-09-22T00:27:11.653Z,66.56
2022-09-22T00:28:13.869Z,66.57
2022-09-22T00:29:17.442Z,66.49
2022-09-22T00:30:19.594Z,66.43
2022-09-22T00:31:24.444Z,66.48
2022-09-22T00:32:28.748Z,66.40
2022-09-22T00:33:30.920Z,66.56
2022-09-22T00:34:33.205Z,66.58
2022-09-22T00:35:38.384Z,66.53
2022-09-22T00:36:40.565Z,66.57
2022-09-22T00:37:42.714Z,66.56
2022-09-22T00:38:45.405Z,66.63
2022-09-22T00:39:47.584Z,66.46
2022-09-22T00:40:50.024Z,66.47
2022-09-22T00:41:55.220Z,66.51
2022-09-22T00:43:12.975Z,66.42
2022-09-22T00:44:18.679Z,66.51
2022-09-22T00:45:20.824Z,66.54
2022-09-22T00:46:26.853Z,66.62
2022-09-22T00:47:39.297Z,66.59
2022-09-22T00:48:51.153Z,66.47
2022-09-22T00:50:11.538Z,66.34
2022-09-22T00:51:16.778Z,66.52
2022-09-22T00:52:58.963Z,66.62
2022-09-22T00:54:04.665Z,66.65
2022-09-22T00:55:34.573Z,66.53
2022-09-22T00:56:45.285Z,66.45
2022-09-22T00:57:49.076Z,66.60
2022-09-22T00:58:57.776Z,66.52
2022-09-22T01:00:02.726Z,66.60
2022-09-22T01:01:05.199Z,66.63
2022-09-22T01:02:07.503Z,66.54
2022-09-22T01:03:15.932Z,66.43
2022-09-22T01:04:18.324Z,66.36
2022-09-22T01:05:22.353Z,66.44
2022-09-22T01:06:27.948Z,66.38
2022-09-22T01:07:31.263Z,66.33
2022-09-22T01:08:34.361Z,66.38
2022-09-22T01:09:36.592Z,66.32
2022-09-22T01:10:41.671Z,66.13
2022-09-22T01:11:43.906Z,66.09
2022-09-22T01:13:35.053Z,65.93
2022-09-22T01:14:39.877Z,66.00
2022-09-22T01:16:07.722Z,65.66
2022-09-22T01:17:29.854Z,65.88
2022-09-22T01:18:53.526Z,65.67
2022-09-22T01:20:20.972Z,65.83
2022-09-22T01:21:35.296Z,65.98
2022-09-22T01:23:25.334Z,65.94
2022-09-22T01:24:45.550Z,66.02
2022-09-22T01:26:12.264Z,65.83
2022-09-22T01:27:20.297Z,65.82
2022-09-22T01:28:46.875Z,65.96
2022-09-22T01:30:10.902Z,65.93
2022-09-22T01:31:37.315Z,65.92
2022-09-22T01:33:01.032Z,65.95
2022-09-22T01:34:30.253Z,65.97
2022-09-22T01:35:42.785Z,66.05
2022-09-22T01:36:57.211Z,65.97
2022-09-22T01:38:14.676Z,65.93
2022-09-22T01:39:34.419Z,65.85
2022-09-22T01:40:54.768Z,65.96
2022-09-22T01:42:30.441Z,65.86
2022-09-22T01:43:54.414Z,65.87
2022-09-22T01:45:19.496Z,65.91
2022-09-22T01:46:27.078Z,65.94
2022-09-22T01:47:40.689Z,65.98
2022-09-22T01:48:47.830Z,66.06
2022-09-22T01:49:57.153Z,66.16
2022-09-22T01:51:14.576Z,66.10
2022-09-22T01:52:23.436Z,66.08
2022-09-22T01:53:31.369Z,66.07
2022-09-22T01:54:49.787Z,66.12
2022-09-22T01:55:59.402Z,66.04
2022-09-22T01:57:21.298Z,66.09
2022-09-22T01:58:32.263Z,66.15
2022-09-22T01:59:38.684Z,66.19
2022-09-22T02:00:47.459Z,66.22
2022-09-22T02:01:56.107Z,66.20
2022-09-22T02:03:16.928Z,66.19
2022-09-22T02:04:29.743Z,66.33
2022-09-22T02:05:37.001Z,66.36
2022-09-22T02:06:54.334Z,66.48
2022-09-22T02:08:01.184Z,66.44
2022-09-22T02:09:07.387Z,66.39
2022-09-22T02:10:13.554Z,66.50
2022-09-22T02:11:16.321Z,66.57
2022-09-22T02:12:19.448Z,66.67
2022-09-22T02:13:21.604Z,66.62
2022-09-22T02:14:24.997Z,66.83
2022-09-22T02:15:46.955Z,66.78
2022-09-22T02:16:49.182Z,66.81
2022-09-22T02:17:51.347Z,66.82
2022-09-22T02:19:10.380Z,66.96
2022-09-22T02:20:14.550Z,66.80
2022-09-22T02:21:17.466Z,66.79
2022-09-22T02:22:20.984Z,66.91
2022-09-22T02:23:26.284Z,66.87
2022-09-22T02:24:33.249Z,66.85
2022-09-22T02:25:38.408Z,66.74
2022-09-22T02:26:40.584Z,66.58
2022-09-22T02:27:43.323Z,66.63
2022-09-22T02:28:46.195Z,66.72
2022-09-22T02:30:10.573Z,66.56
2022-09-22T02:31:21.341Z,66.61
2022-09-22T02:32:24.613Z,66.68
2022-09-22T02:33:28.343Z,66.67
2022-09-22T02:34:31.004Z,66.71
2022-09-22T02:35:37.103Z,66.78
2022-09-22T02:37:11.962Z,66.63
2022-09-22T02:38:19.985Z,66.86
2022-09-22T02:39:34.942Z,67.06
2022-09-22T02:40:44.007Z,67.05
2022-09-22T02:42:30.433Z,67.05
2022-09-22T02:43:36.699Z,67.05
2022-09-22T02:44:46.509Z,66.96
2022-09-22T02:46:15.393Z,67.02
2022-09-22T02:47:21.889Z,66.93
2022-09-22T02:48:31.945Z,66.93
2022-09-22T02:49:37.636Z,66.91
2022-09-22T02:50:39.875Z,66.89
2022-09-22T02:51:42.644Z,66.88
2022-09-22T02:52:44.909Z,66.99
2022-09-22T02:53:47.153Z,66.89
2022-09-22T02:54:49.313Z,66.96
2022-09-22T02:55:51.600Z,66.98
2022-09-22T02:56:54.297Z,66.88
2022-09-22T02:57:56.522Z,66.58
2022-09-22T02:58:58.952Z,66.71
2022-09-22T03:00:01.465Z,66.67
2022-09-22T03:01:03.941Z,66.66
2022-09-22T03:02:06.074Z,66.71
2022-09-22T03:03:08.358Z,66.53
2022-09-22T03:04:10.545Z,66.47
2022-09-22T03:05:12.772Z,66.52
2022-09-22T03:06:15.015Z,66.60
2022-09-22T03:07:18.612Z,66.64
2022-09-22T03:08:20.812Z,66.63
2022-09-22T03:09:23.071Z,66.49
2022-09-22T03:10:25.418Z,66.42
2022-09-22T03:11:27.552Z,66.33
2022-09-22T03:12:31.424Z,66.64
2022-09-22T03:13:33.586Z,66.41
2022-09-22T03:14:38.761Z,66.54
2022-09-22T03:15:41.058Z,66.49
2022-09-22T03:16:43.233Z,66.35
2022-09-22T03:17:47.349Z,66.20
2022-09-22T03:18:49.501Z,66.29
2022-09-22T03:19:52.738Z,66.22
2022-09-22T03:20:54.857Z,66.43
2022-09-22T03:21:57.022Z,66.40
2022-09-22T03:22:59.171Z,66.30
2022-09-22T03:24:01.939Z,66.23
2022-09-22T03:25:08.606Z,66.25
2022-09-22T03:26:10.840Z,66.07
2022-09-22T03:27:12.983Z,66.18
2022-09-22T03:28:15.251Z,66.26
2022-09-22T03:29:17.413Z,66.21
2022-09-22T03:30:19.614Z,66.17
2022-09-22T03:31:21.932Z,66.14
2022-09-22T03:32:24.175Z,66.15
2022-09-22T03:33:26.299Z,66.09
2022-09-22T03:34:28.436Z,66.10
2022-09-22T03:35:30.592Z,66.09
2022-09-22T03:36:32.888Z,66.19
2022-09-22T03:37:35.484Z,66.28
2022-09-22T03:38:37.631Z,66.18
2022-09-22T03:39:40.276Z,66.24
2022-09-22T03:40:49.882Z,66.19
2022-09-22T03:41:52.059Z,66.23
2022-09-22T03:42:54.859Z,66.33
2022-09-22T03:43:57.029Z,66.31
2022-09-22T03:44:59.318Z,66.39
2022-09-22T03:46:03.372Z,66.49
2022-09-22T03:47:05.887Z,66.60
2022-09-22T03:48:08.069Z,66.73
2022-09-22T03:49:11.194Z,66.75
2022-09-22T03:50:14.179Z,66.82
2022-09-22T03:51:16.557Z,66.81
2022-09-22T03:52:18.725Z,66.96
2022-09-22T03:53:21.167Z,66.95
2022-09-22T03:54:23.624Z,67.09
2022-09-22T03:55:25.890Z,67.11
2022-09-22T03:56:28.094Z,67.07
2022-09-22T03:57:30.532Z,67.25
2022-09-22T03:58:33.229Z,67.29
2022-09-22T03:59:35.499Z,67.46
2022-09-22T04:00:37.717Z,67.53
2022-09-22T04:01:40.234Z,67.74
2022-09-22T04:02:42.878Z,67.67
2022-09-22T04:03:45.056Z,67.75
2022-09-22T04:04:47.283Z,67.67
2022-09-22T04:05:50.721Z,67.70
2022-09-22T04:06:52.928Z,67.75
2022-09-22T04:07:55.193Z,67.79
2022-09-22T04:08:57.438Z,67.89
2022-09-22T04:09:59.557Z,67.98
2022-09-22T04:11:03.899Z,68.02
2022-09-22T04:12:06.644Z,68.13
2022-09-22T04:13:08.799Z,68.24
2022-09-22T04:14:11.112Z,68.34
2022-09-22T04:15:13.384Z,68.26
2022-09-22T04:16:15.579Z,68.22
2022-09-22T04:17:20.657Z,68.21
2022-09-22T04:18:22.897Z,68.17
2022-09-22T04:19:25.077Z,68.25
2022-09-22T04:20:29.981Z,68.23
2022-09-22T04:21:32.416Z,68.23
2022-09-22T04:22:34.686Z,68.31
2022-09-22T04:23:37.091Z,68.38
2022-09-22T04:24:39.287Z,68.29
2022-09-22T04:25:41.781Z,68.32
2022-09-22T04:27:01.858Z,68.23
2022-09-22T04:28:06.915Z,68.19
2022-09-22T04:29:09.114Z,68.08
2022-09-22T04:30:11.879Z,68.01
2022-09-22T04:31:14.156Z,68.08
2022-09-22T04:32:18.428Z,68.03
2022-09-22T04:33:20.881Z,67.94
2022-09-22T04:34:23.097Z,67.96
2022-09-22T04:35:26.866Z,67.85
2022-09-22T04:36:29.098Z,67.97
2022-09-22T04:37:31.306Z,67.98
2022-09-22T04:38:33.490Z,68.00
2022-09-22T04:39:36.403Z,67.88
2022-09-22T04:40:38.630Z,67.85
2022-09-22T04:41:42.001Z,67.75
2022-09-22T04:42:46.560Z,67.74
2022-09-22T04:43:48.756Z,67.76
2022-09-22T04:44:50.929Z,67.87
2022-09-22T04:45:53.228Z,67.82
2022-09-22T04:46:57.232Z,67.93
2022-09-22T04:47:59.379Z,67.96
2022-09-22T04:49:01.581Z,68.00
2022-09-22T04:50:03.977Z,68.16
2022-09-22T04:51:06.146Z,68.23
2022-09-22T04:52:08.297Z,68.29
2022-09-22T04:53:10.609Z,68.39
2022-09-22T04:54:14.175Z,68.42
2022-09-22T04:55:16.759Z,68.39
2022-09-22T04:56:18.870Z,68.50
2022-09-22T04:57:20.993Z,68.55
2022-09-22T04:58:23.191Z,68.49
2022-09-22T04:59:25.445Z,68.34
2022-09-22T05:00:29.499Z,68.29
2022-09-22T05:01:31.724Z,68.28
2022-09-22T05:02:35.575Z,68.39
2022-09-22T05:03:39.461Z,68.26
2022-09-22T05:04:41.688Z,68.04
2022-09-22T05:05:43.827Z,68.28
2022-09-22T05:06:45.971Z,68.28
2022-09-22T05:07:52.899Z,68.24
2022-09-22T05:08:55.673Z,68.30
2022-09-22T05:09:58.031Z,68.18
2022-09-22T05:11:03.199Z,68.28
2022-09-22T05:12:05.544Z,68.19
2022-09-22T05:13:08.328Z,68.24
2022-09-22T05:14:10.721Z,68.16
2022-09-22T05:15:14.729Z,68.22
2022-09-22T05:16:18.185Z,68.24
2022-09-22T05:17:20.798Z,68.19
2022-09-22T05:18:23.700Z,68.27
2022-09-22T05:19:25.839Z,68.33
2022-09-22T05:20:28.120Z,68.25
2022-09-22T05:21:30.307Z,68.37
2022-09-22T05:22:36.346Z,68.45
2022-09-22T05:23:41.347Z,68.55
2022-09-22T05:24:45.837Z,68.72
2022-09-22T05:25:47.994Z,68.91
2022-09-22T05:26:50.499Z,68.97
2022-09-22T05:27:54.579Z,69.26
2022-09-22T05:28:57.691Z,69.32
2022-09-22T05:29:59.846Z,69.51
2022-09-22T05:31:03.062Z,69.59
2022-09-22T05:32:05.433Z,69.72
2022-09-22T05:33:07.625Z,69.97
2022-09-22T05:34:09.848Z,70.02
2022-09-22T05:35:14.031Z,70.20
2022-09-22T05:36:17.091Z,70.25
2022-09-22T05:37:19.218Z,70.44
2022-09-22T05:38:21.355Z,70.41
2022-09-22T05:39:23.657Z,70.42
2022-09-22T05:40:26.845Z,70.35
2022-09-22T05:41:29.034Z,70.42
2022-09-22T05:42:31.153Z,70.47
2022-09-22T05:43:33.319Z,70.72
2022-09-22T05:44:35.551Z,70.77
2022-09-22T05:45:37.716Z,70.86
2022-09-22T05:46:40.038Z,70.87
2022-09-22T05:47:43.405Z,71.07
2022-09-22T05:48:45.529Z,70.85
2022-09-22T05:49:47.716Z,70.95
2022-09-22T05:50:49.847Z,71.09
2022-09-22T05:51:55.581Z,71.19
2022-09-22T05:53:06.455Z,71.42
2022-09-22T05:54:09.999Z,71.37
2022-09-22T05:55:13.281Z,71.53
2022-09-22T05:56:17.903Z,71.78
2022-09-22T05:57:25.878Z,72.22
2022-09-22T05:58:28.109Z,72.63
2022-09-22T05:59:30.256Z,72.98
2022-09-22T06:00:33.419Z,73.66
2022-09-22T06:01:35.571Z,74.30
2022-09-22T06:02:38.716Z,74.83
2022-09-22T06:03:40.917Z,75.36
2022-09-22T06:04:43.042Z,75.88
2022-09-22T06:05:45.774Z,76.12
2022-09-22T06:06:48.008Z,76.31
2022-09-22T06:08:01.576Z,76.66
2022-09-22T06:09:04.148Z,76.30
2022-09-22T06:10:07.062Z,75.62
2022-09-22T06:11:09.284Z,75.29
2022-09-22T06:12:11.920Z,74.82
2022-09-22T06:13:14.091Z,74.49
2022-09-22T06:14:16.272Z,74.02
2022-09-22T06:15:18.407Z,73.39
2022-09-22T06:16:21.235Z,73.21
2022-09-22T06:17:26.271Z,72.58
2022-09-22T06:18:31.606Z,71.86
2022-09-22T06:19:35.149Z,71.24
2022-09-22T06:20:38.098Z,70.59
2022-09-22T06:21:40.298Z,70.11
2022-09-22T06:22:42.536Z,69.97
2022-09-22T06:23:44.997Z,69.55
2022-09-22T06:24:48.920Z,69.51
2022-09-22T06:25:56.807Z,68.91
2022-09-22T06:26:58.945Z,68.91
2022-09-22T06:28:09.986Z,68.41
2022-09-22T06:29:12.206Z,68.22
2022-09-22T06:30:14.349Z,68.14
2022-09-22T06:31:16.557Z,67.89
2022-09-22T06:32:19.625Z,67.41
2022-09-22T06:33:23.968Z,66.90
2022-09-22T06:34:27.419Z,66.54
2022-09-22T06:35:36.650Z,66.05
2022-09-22T06:36:43.139Z,65.73
2022-09-22T06:37:45.427Z,65.67
2022-09-22T06:38:47.547Z,65.25
2022-09-22T06:39:49.810Z,64.71
2022-09-22T06:40:52.265Z,64.38
2022-09-22T06:41:56.497Z,63.72
2022-09-22T06:43:00.146Z,62.98
2022-09-22T06:44:02.733Z,62.79
2022-09-22T06:45:05.327Z,62.60
2022-09-22T06:46:07.868Z,62.06
2022-09-22T06:47:10.226Z,61.54
2022-09-22T06:48:12.551Z,61.37
2022-09-22T06:49:14.721Z,60.60
2022-09-22T06:50:17.815Z,60.24
2022-09-22T06:51:19.994Z,59.87
2022-09-22T06:52:22.125Z,59.10
2022-09-22T06:53:27.363Z,58.64
2022-09-22T06:54:30.343Z,58.69
2022-09-22T06:55:33.036Z,57.82
2022-09-22T06:56:43.113Z,57.61
2022-09-22T06:57:45.317Z,57.21
2022-09-22T06:59:08.790Z,57.22
2022-09-22T07:00:13.427Z,56.72
2022-09-22T07:01:19.494Z,56.26
2022-09-22T07:02:28.271Z,56.33
2022-09-22T07:03:31.194Z,55.18
2022-09-22T07:04:34.869Z,54.74
2022-09-22T07:05:37.340Z,54.43
2022-09-22T07:06:40.732Z,53.81
2022-09-22T07:07:42.944Z,53.90
2022-09-22T07:08:47.089Z,53.74
2022-09-22T07:09:49.275Z,53.42
2022-09-22T07:10:56.927Z,53.13
2022-09-22T07:12:00.373Z,52.74
2022-09-22T07:13:02.824Z,52.28
2022-09-22T07:14:05.002Z,52.49
2022-09-22T07:15:07.840Z,52.11
2022-09-22T07:16:13.772Z,52.21
2022-09-22T07:17:18.865Z,52.02
2022-09-22T07:18:21.022Z,52.24
2022-09-22T07:19:23.212Z,52.11
2022-09-22T07:20:25.385Z,52.03
2022-09-22T07:21:31.927Z,51.96
2022-09-22T07:22:39.592Z,51.77
2022-09-22T07:23:44.348Z,51.27
2022-09-22T07:24:46.592Z,51.40
2022-09-22T07:25:56.547Z,50.47
2022-09-22T07:27:05.135Z,50.54
2022-09-22T07:29:16.215Z,50.15
2022-09-22T07:30:21.916Z,49.70
2022-09-22T07:31:28.588Z,49.48
2022-09-22T07:32:32.559Z,49.30
2022-09-22T07:33:36.451Z,48.50
2022-09-22T07:34:38.655Z,48.20
2022-09-22T07:35:41.235Z,48.26
2022-09-22T07:36:43.371Z,47.74
2022-09-22T07:37:46.694Z,48.10
2022-09-22T07:38:51.745Z,47.47
2022-09-22T07:39:53.909Z,47.63
2022-09-22T07:40:56.061Z,47.42
2022-09-22T07:41:58.971Z,47.33
2022-09-22T07:43:02.731Z,47.22
2022-09-22T07:44:23.340Z,47.27
2022-09-22T07:45:25.504Z,46.93
2022-09-22T07:46:27.691Z,46.50
2022-09-22T07:47:48.323Z,46.41
2022-09-22T07:48:50.540Z,46.29
2022-09-22T07:49:52.710Z,46.13
2022-09-22T07:50:55.053Z,45.89
2022-09-22T07:51:57.945Z,45.09
2022-09-22T07:53:00.176Z,45.31
2022-09-22T07:54:09.589Z,44.70
2022-09-22T07:55:11.809Z,44.69
2022-09-22T07:56:17.068Z,43.95
2022-09-22T07:57:21.508Z,44.13
2022-09-22T07:58:23.781Z,44.15
2022-09-22T07:59:26.639Z,44.12
2022-09-22T08:00:33.872Z,43.96
2022-09-22T08:01:38.086Z,43.54
2022-09-22T08:02:41.254Z,43.39
2022-09-22T08:03:44.577Z,43.25
2022-09-22T08:04:46.729Z,43.57
2022-09-22T08:05:52.099Z,43.13
2022-09-22T08:06:56.500Z,42.68
2022-09-22T08:07:58.825Z,42.50
2022-09-22T08:09:05.536Z,42.49
2022-09-22T08:10:08.252Z,41.86
2022-09-22T08:11:14.995Z,41.69
2022-09-22T08:12:17.206Z,41.47
2022-09-22T08:13:20.593Z,41.55
2022-09-22T08:14:24.240Z,41.55
2022-09-22T08:15:27.453Z,41.55
2022-09-22T08:16:33.442Z,41.10
2022-09-22T08:17:35.699Z,41.43
2022-09-22T08:18:39.734Z,40.83
2022-09-22T08:19:42.110Z,41.09
2022-09-22T08:20:45.102Z,40.93
2022-09-22T08:21:50.561Z,40.76
2022-09-22T08:22:53.925Z,40.67
2022-09-22T08:23:56.073Z,40.64
2022-09-22T08:24:58.263Z,40.57
2022-09-22T08:26:08.546Z,39.88
2022-09-22T08:27:10.721Z,40.13
2022-09-22T08:28:12.860Z,40.00
2022-09-22T08:29:15.102Z,40.16
2022-09-22T08:30:18.975Z,39.46
2022-09-22T08:31:22.712Z,39.55
2022-09-22T08:32:26.757Z,39.83
2022-09-22T08:33:32.372Z,39.14
2022-09-22T08:34:34.657Z,39.29
2022-09-22T08:35:37.497Z,39.05
2022-09-22T08:36:39.992Z,39.02
2022-09-22T08:37:44.228Z,38.41
2022-09-22T08:38:49.760Z,38.16
2022-09-22T08:39:51.976Z,37.76
2022-09-22T08:41:29.219Z,38.23
2022-09-22T08:42:34.229Z,38.08
2022-09-22T08:43:44.442Z,37.78
2022-09-22T08:44:58.273Z,37.85
2022-09-22T08:46:04.496Z,37.45
2022-09-22T08:47:10.479Z,37.75
2022-09-22T08:48:44.299Z,37.18
2022-09-22T08:50:07.892Z,37.49
2022-09-22T08:51:45.585Z,38.18
2022-09-22T08:52:55.514Z,38.38
2022-09-22T08:54:03.071Z,38.19
2022-09-22T08:55:11.254Z,37.81
2022-09-22T08:56:29.306Z,38.56
2022-09-22T08:57:46.787Z,37.78
2022-09-22T08:59:02.273Z,37.57
2022-09-22T09:00:06.582Z,37.06
2022-09-22T09:01:30.522Z,37.71
2022-09-22T09:02:58.710Z,37.74
2022-09-22T09:04:21.269Z,37.97
2022-09-22T09:06:04.729Z,37.80
2022-09-22T09:07:36.099Z,37.50
2022-09-22T09:09:05.267Z,38.13
2022-09-22T09:10:28.410Z,37.38
2022-09-22T09:11:58.331Z,36.72
2022-09-22T09:13:32.480Z,37.00
2022-09-22T09:14:47.429Z,36.75
2022-09-22T09:16:14.507Z,37.00
2022-09-22T09:17:28.948Z,37.22
2022-09-22T09:18:34.774Z,37.02
2022-09-22T09:19:46.421Z,37.07
2022-09-22T09:20:52.257Z,37.15
2022-09-22T09:22:00.254Z,36.67
2022-09-22T09:23:10.723Z,37.05
2022-09-22T09:25:50.784Z,36.34
2022-09-22T09:26:53.884Z,36.15
2022-09-22T09:28:01.459Z,35.98
2022-09-22T09:29:14.000Z,36.25
2022-09-22T09:30:19.077Z,35.66
2022-09-22T09:31:32.320Z,35.61
2022-09-22T09:32:50.163Z,35.89
2022-09-22T09:34:19.956Z,35.61
2022-09-22T09:35:39.628Z,35.21
2022-09-22T09:36:52.956Z,35.51
2022-09-22T09:37:59.583Z,35.18
2022-09-22T09:39:13.158Z,35.66
2022-09-22T09:40:19.620Z,35.44
2022-09-22T09:41:31.916Z,35.76
2022-09-22T09:42:36.961Z,35.73
2022-09-22T09:43:42.903Z,36.20
2022-09-22T09:44:46.744Z,35.88
2022-09-22T09:45:51.814Z,35.70
2022-09-22T09:47:07.933Z,35.80
2022-09-22T09:48:16.048Z,36.28
2022-09-22T09:49:20.903Z,35.71
2022-09-22T09:50:25.266Z,35.50
2022-09-22T09:51:28.856Z,35.49
2022-09-22T09:52:31.270Z,35.36
2022-09-22T09:53:43.571Z,35.22
2022-09-22T09:54:47.364Z,35.53
2022-09-22T09:55:50.794Z,35.22
2022-09-22T09:57:18.493Z,35.69
2022-09-22T09:58:38.979Z,35.69
2022-09-22T10:00:08.538Z,35.59
2022-09-22T10:01:16.598Z,35.18
2022-09-22T10:02:31.794Z,35.86
2022-09-22T10:03:42.696Z,35.22
2022-09-22T10:04:54.806Z,35.82
2022-09-22T10:06:04.582Z,35.77
2022-09-22T10:07:15.319Z,35.99
2022-09-22T10:08:21.255Z,35.95
2022-09-22T10:09:28.657Z,36.28
2022-09-22T10:10:37.509Z,36.35
2022-09-22T10:11:39.734Z,36.50
2022-09-22T10:12:41.889Z,36.80
2022-09-22T10:13:44.396Z,37.02
2022-09-22T10:14:53.666Z,36.76
2022-09-22T10:16:01.967Z,37.21
2022-09-22T10:17:20.470Z,37.61
2022-09-22T10:18:25.550Z,37.92
2022-09-22T10:19:30.652Z,37.72
2022-09-22T10:20:34.188Z,38.02
2022-09-22T10:21:37.815Z,38.24
2022-09-22T10:22:40.646Z,38.58
2022-09-22T10:23:47.862Z,38.32
2022-09-22T10:24:54.445Z,38.48
2022-09-22T10:26:21.764Z,38.60
2022-09-22T10:27:26.138Z,38.56
2022-09-22T10:28:28.309Z,38.72
2022-09-22T10:29:30.502Z,38.66
2022-09-22T10:30:37.565Z,38.94
2022-09-22T10:31:41.843Z,38.66
2022-09-22T10:33:05.625Z,38.83
2022-09-22T10:34:40.968Z,39.34
2022-09-22T10:36:09.262Z,39.06
2022-09-22T10:37:17.054Z,38.68
2022-09-22T10:38:22.221Z,39.02
2022-09-22T10:39:37.210Z,38.83
2022-09-22T10:40:44.181Z,39.41
2022-09-22T10:41:48.919Z,39.29
2022-09-22T10:42:53.031Z,39.13
2022-09-22T10:44:15.269Z,38.97
2022-09-22T10:45:47.115Z,38.62
2022-09-22T10:46:49.973Z,38.38
2022-09-22T10:48:11.824Z,37.70
2022-09-22T10:50:05.361Z,38.25
2022-09-22T10:51:21.800Z,38.72
2022-09-22T10:52:41.502Z,38.91
2022-09-22T10:54:08.570Z,39.01
2022-09-22T10:55:22.935Z,38.72
2022-09-22T10:56:41.468Z,39.09
2022-09-22T10:58:02.063Z,39.47
2022-09-22T10:59:22.287Z,39.69
2022-09-22T11:00:26.924Z,38.73
2022-09-22T11:01:47.126Z,38.66
2022-09-22T11:03:13.547Z,38.47
2022-09-22T11:04:21.733Z,38.18
2022-09-22T11:05:49.792Z,38.26
2022-09-22T11:07:26.231Z,37.22
2022-09-22T11:08:55.677Z,36.97
2022-09-22T11:10:21.186Z,37.07
2022-09-22T11:11:51.731Z,36.37
2022-09-22T11:13:01.088Z,36.57
2022-09-22T11:14:40.791Z,36.90
2022-09-22T11:16:24.546Z,36.99
2022-09-22T11:17:46.917Z,36.20
2022-09-22T11:19:09.887Z,36.57
2022-09-22T11:20:37.021Z,37.20
2022-09-22T11:21:39.128Z,36.75
2022-09-22T11:22:54.354Z,37.42
2022-09-22T11:24:13.103Z,37.16
2022-09-22T11:25:33.986Z,37.58
2022-09-22T11:26:48.230Z,37.30
2022-09-22T11:27:56.451Z,37.60
2022-09-22T11:29:06.800Z,37.75
2022-09-22T11:30:18.361Z,37.59
2022-09-22T11:31:47.295Z,37.65
2022-09-22T11:33:00.061Z,37.68
2022-09-22T11:34:23.259Z,37.78
2022-09-22T11:35:34.520Z,38.14
2022-09-22T11:36:58.915Z,38.40
2022-09-22T11:38:28.598Z,38.49
2022-09-22T11:39:59.796Z,38.24
2022-09-22T11:41:28.938Z,38.47
2022-09-22T11:43:03.780Z,38.47
2022-09-22T11:44:30.188Z,38.85
2022-09-22T11:45:55.723Z,38.75
2022-09-22T11:47:16.152Z,38.55
2022-09-22T11:48:55.849Z,38.78
2022-09-22T11:50:23.206Z,38.58
2022-09-22T11:51:44.014Z,38.76
2022-09-22T11:53:24.242Z,38.80
2022-09-22T11:54:54.337Z,38.48
2022-09-22T11:56:23.704Z,38.63
2022-09-22T11:57:31.778Z,38.22
2022-09-22T11:58:41.223Z,38.46
2022-09-22T12:00:05.730Z,38.56
2022-09-22T12:01:19.247Z,38.30
2022-09-22T12:02:29.515Z,38.59
2022-09-22T12:03:47.317Z,38.74
2022-09-22T12:05:02.122Z,38.50
2022-09-22T12:06:12.753Z,38.59
2022-09-22T12:07:24.570Z,38.33
2022-09-22T12:08:32.561Z,38.82
2022-09-22T12:09:46.054Z,38.78
2022-09-22T12:10:50.219Z,38.75
2022-09-22T12:11:56.213Z,38.87
2022-09-22T12:12:58.548Z,38.87
2022-09-22T12:14:01.038Z,39.12
2022-09-22T12:15:19.351Z,39.08
2022-09-22T12:16:42.007Z,38.75
2022-09-22T12:17:54.134Z,39.22
2022-09-22T12:19:03.646Z,38.88
2022-09-22T12:20:16.404Z,39.39
2022-09-22T12:21:46.040Z,39.32
2022-09-22T12:22:48.119Z,38.62
2022-09-22T12:23:52.268Z,38.16
2022-09-22T12:24:54.432Z,37.97
2022-09-22T12:26:01.487Z,37.51
2022-09-22T12:27:12.051Z,38.01
2022-09-22T12:28:23.245Z,38.28
2022-09-22T12:29:30.684Z,37.91
2022-09-22T12:30:33.146Z,37.88
2022-09-22T12:31:38.071Z,37.52
2022-09-22T12:32:42.744Z,37.21
2022-09-22T12:33:49.984Z,36.68
2022-09-22T12:34:56.248Z,36.75
2022-09-22T12:35:59.365Z,36.62
2022-09-22T12:37:29.778Z,37.06
2022-09-22T12:38:32.352Z,36.70
2022-09-22T12:39:41.993Z,36.88
2022-09-22T12:40:50.340Z,36.15
2022-09-22T12:42:06.037Z,36.34
2022-09-22T12:43:19.545Z,36.46
2022-09-22T12:44:25.190Z,36.84
2022-09-22T12:45:37.534Z,36.59
2022-09-22T12:46:43.252Z,36.25
2022-09-22T12:47:50.741Z,35.41
2022-09-22T12:48:53.545Z,35.71
2022-09-22T12:50:01.765Z,35.90
2022-09-22T12:51:17.398Z,36.14
2022-09-22T12:52:39.937Z,36.61
2022-09-22T12:53:43.861Z,36.37
2022-09-22T12:54:46.998Z,36.45
2022-09-22T12:55:51.218Z,36.52
2022-09-22T12:56:56.125Z,36.65
2022-09-22T12:58:00.135Z,36.65
2022-09-22T12:59:02.256Z,36.82
2022-09-22T13:00:17.730Z,36.75
2022-09-22T13:01:33.091Z,37.24
2022-09-22T13:02:43.162Z,36.66
2022-09-22T13:03:50.778Z,36.72
2022-09-22T13:04:56.017Z,36.79
2022-09-22T13:06:04.356Z,36.76
2022-09-22T13:07:45.457Z,36.52
2022-09-22T13:08:53.756Z,36.61
2022-09-22T13:10:23.974Z,36.82
2022-09-22T13:12:03.847Z,36.65
2022-09-22T13:13:05.985Z,36.45
2022-09-22T13:14:57.049Z,36.20
2022-09-22T13:16:03.424Z,36.52
2022-09-22T13:17:43.575Z,36.63
2022-09-22T13:19:01.594Z,36.38
2022-09-22T13:20:18.597Z,36.66
2022-09-22T13:21:26.760Z,36.69
2022-09-22T13:22:28.944Z,36.90
2022-09-22T13:23:31.126Z,37.22
2022-09-22T13:24:33.285Z,37.33
2022-09-22T13:25:35.581Z,37.41
2022-09-22T13:26:41.265Z,37.44
2022-09-22T13:27:43.476Z,37.50
2022-09-22T13:29:13.133Z,37.69
2022-09-22T13:30:15.343Z,37.65
2022-09-22T13:31:18.007Z,37.67
2022-09-22T13:32:26.964Z,37.82
2022-09-22T13:33:33.927Z,38.03
2022-09-22T13:34:37.003Z,38.02
2022-09-22T13:35:41.131Z,38.07
2022-09-22T13:36:44.712Z,37.82
2022-09-22T13:37:47.212Z,37.67
2022-09-22T13:38:56.310Z,37.95
2022-09-22T13:39:58.465Z,37.74
2022-09-22T13:41:00.906Z,37.61
2022-09-22T13:42:08.432Z,37.36
2022-09-22T13:43:12.403Z,37.55
2022-09-22T13:44:17.221Z,37.66
2022-09-22T13:45:26.173Z,37.52
2022-09-22T13:46:40.304Z,37.88
2022-09-22T13:47:43.618Z,37.87
2022-09-22T13:48:45.917Z,37.84
2022-09-22T13:49:57.710Z,37.49
2022-09-22T13:51:04.563Z,37.78
2022-09-22T13:52:22.174Z,37.51
2022-09-22T13:53:24.730Z,37.06
2022-09-22T13:54:31.593Z,37.09
2022-09-22T13:55:36.126Z,37.33
2022-09-22T13:56:38.671Z,37.08
2022-09-22T13:57:42.368Z,37.12
2022-09-22T13:58:46.761Z,36.98
2022-09-22T13:59:51.660Z,36.88
2022-09-22T14:01:12.964Z,36.78
2022-09-22T14:02:22.294Z,36.93
2022-09-22T14:03:25.173Z,36.91
2022-09-22T14:04:27.695Z,37.06
2022-09-22T14:05:33.681Z,37.05
2022-09-22T14:06:36.964Z,37.12
2022-09-22T14:07:55.198Z,37.13
2022-09-22T14:09:03.804Z,37.17
2022-09-22T14:10:09.280Z,36.95
2022-09-22T14:11:28.185Z,37.00
2022-09-22T14:12:30.583Z,36.85
2022-09-22T14:13:59.365Z,36.83
2022-09-22T14:15:33.642Z,37.25
2022-09-22T14:16:46.766Z,36.93
2022-09-22T14:17:49.172Z,37.07
2022-09-22T14:18:58.894Z,37.14
2022-09-22T14:20:04.595Z,37.19
2022-09-22T14:21:10.751Z,36.87
2022-09-22T14:22:22.146Z,37.02
2022-09-22T14:23:30.828Z,37.00
2022-09-22T14:24:39.450Z,37.21
2022-09-22T14:25:43.089Z,36.86
2022-09-22T14:26:54.928Z,37.09
2022-09-22T14:27:59.884Z,37.09
2022-09-22T14:29:23.235Z,37.59
2022-09-22T14:30:31.230Z,37.40
2022-09-22T14:31:35.948Z,37.05
2022-09-22T14:32:47.131Z,36.89
2022-09-22T14:33:49.549Z,37.13
2022-09-22T14:34:58.675Z,37.17
2022-09-22T14:36:03.476Z,36.92
2022-09-22T14:37:31.250Z,37.14
2022-09-22T14:38:41.961Z,37.28
2022-09-22T14:39:47.417Z,37.27
2022-09-22T14:41:03.225Z,37.37
2022-09-22T14:42:20.614Z,37.45
2022-09-22T14:43:24.123Z,37.37
2022-09-22T14:44:35.316Z,37.20
2022-09-22T14:45:59.628Z,37.41
2022-09-22T14:47:28.226Z,37.93